sensor_id;sensor_type;location;lat;lon;timestamp;pressure;altitude;pressure_sealevel;temperature;humidity
77047;BME280;65977;56.380;44.022;2023-03-12T00:00:53;99779.75;;;2.63;57.17
77047;BME280;65977;56.380;44.022;2023-03-12T00:03:20;99772.38;;;2.69;56.54
77047;BME280;65977;56.380;44.022;2023-03-12T00:05:47;99767.06;;;2.71;57.32
77047;BME280;65977;56.380;44.022;2023-03-12T00:08:14;99758.91;;;2.75;56.22
77047;BME280;65977;56.380;44.022;2023-03-12T00:10:41;99764.78;;;2.79;56.49
77047;BME280;65977;56.380;44.022;2023-03-12T00:13:08;99746.59;;;2.77;56.52
77047;BME280;65977;56.380;44.022;2023-03-12T00:15:37;99765.31;;;2.84;56.02
77047;BME280;65977;56.380;44.022;2023-03-12T00:18:05;99744.53;;;2.82;55.57
77047;BME280;65977;56.380;44.022;2023-03-12T00:20:32;99739.22;;;2.84;56.91
77047;BME280;65977;56.380;44.022;2023-03-12T00:22:59;99734.84;;;2.84;56.93
77047;BME280;65977;56.380;44.022;2023-03-12T00:25:26;99732.25;;;2.84;57.57
77047;BME280;65977;56.380;44.022;2023-03-12T00:27:53;99734.50;;;2.76;58.91
77047;BME280;65977;56.380;44.022;2023-03-12T00:30:20;99713.72;;;2.75;58.54
77047;BME280;65977;56.380;44.022;2023-03-12T00:32:47;99708.31;;;2.65;60.59
77047;BME280;65977;56.380;44.022;2023-03-12T00:35:14;99700.28;;;2.68;58.85
77047;BME280;65977;56.380;44.022;2023-03-12T00:37:41;99714.16;;;2.69;59.38
77047;BME280;65977;56.380;44.022;2023-03-12T00:40:09;99699.44;;;2.68;60.30
77047;BME280;65977;56.380;44.022;2023-03-12T00:42:38;99692.34;;;2.70;59.35
77047;BME280;65977;56.380;44.022;2023-03-12T00:45:05;99677.53;;;2.70;59.02
77047;BME280;65977;56.380;44.022;2023-03-12T00:47:33;99688.69;;;2.72;59.01
77047;BME280;65977;56.380;44.022;2023-03-12T00:50:00;99677.44;;;2.72;59.36
77047;BME280;65977;56.380;44.022;2023-03-12T00:52:28;99674.19;;;2.68;61.08
77047;BME280;65977;56.380;44.022;2023-03-12T00:54:55;99683.72;;;2.69;60.78
77047;BME280;65977;56.380;44.022;2023-03-12T00:57:24;99659.91;;;2.74;59.51
77047;BME280;65977;56.380;44.022;2023-03-12T00:59:51;99670.03;;;2.78;59.60
77047;BME280;65977;56.380;44.022;2023-03-12T01:02:18;99658.56;;;2.81;59.24
77047;BME280;65977;56.380;44.022;2023-03-12T01:04:45;99666.38;;;2.81;60.73
77047;BME280;65977;56.380;44.022;2023-03-12T01:07:12;99647.28;;;2.80;60.55
77047;BME280;65977;56.380;44.022;2023-03-12T01:09:39;99652.09;;;2.86;60.23
77047;BME280;65977;56.380;44.022;2023-03-12T01:12:06;99645.94;;;2.87;61.13
77047;BME280;65977;56.380;44.022;2023-03-12T01:14:33;99640.81;;;2.86;60.51
77047;BME280;65977;56.380;44.022;2023-03-12T01:17:01;99629.00;;;2.93;59.94
77047;BME280;65977;56.380;44.022;2023-03-12T01:19:28;99630.56;;;2.95;60.39
77047;BME280;65977;56.380;44.022;2023-03-12T01:21:54;99631.41;;;2.96;61.23
77047;BME280;65977;56.380;44.022;2023-03-12T01:24:22;99613.16;;;2.96;61.30
77047;BME280;65977;56.380;44.022;2023-03-12T01:26:49;99611.06;;;3.01;60.39
77047;BME280;65977;56.380;44.022;2023-03-12T01:29:15;99614.38;;;3.03;60.49
77047;BME280;65977;56.380;44.022;2023-03-12T01:31:43;99606.16;;;2.96;61.77
77047;BME280;65977;56.380;44.022;2023-03-12T01:34:11;99604.69;;;3.05;60.45
77047;BME280;65977;56.380;44.022;2023-03-12T01:36:38;99595.91;;;3.06;60.34
77047;BME280;65977;56.380;44.022;2023-03-12T01:39:05;99584.53;;;3.07;60.16
77047;BME280;65977;56.380;44.022;2023-03-12T01:41:33;99582.53;;;3.10;60.21
77047;BME280;65977;56.380;44.022;2023-03-12T01:44:01;99582.84;;;3.06;60.95
77047;BME280;65977;56.380;44.022;2023-03-12T01:46:40;99594.66;;;2.99;61.92
77047;BME280;65977;56.380;44.022;2023-03-12T01:54:29;99575.75;;;3.08;62.35
77047;BME280;65977;56.380;44.022;2023-03-12T01:57:02;99560.38;;;3.16;61.32
77047;BME280;65977;56.380;44.022;2023-03-12T01:59:33;99548.38;;;3.13;62.51
77047;BME280;65977;56.380;44.022;2023-03-12T02:02:02;99538.34;;;3.20;61.12
77047;BME280;65977;56.380;44.022;2023-03-12T02:04:30;99539.91;;;3.23;60.69
77047;BME280;65977;56.380;44.022;2023-03-12T02:07:06;99543.34;;;3.23;61.16
77047;BME280;65977;56.380;44.022;2023-03-12T02:09:40;99519.75;;;3.25;61.32
77047;BME280;65977;56.380;44.022;2023-03-12T02:12:10;99523.91;;;3.27;61.07
77047;BME280;65977;56.380;44.022;2023-03-12T02:14:37;99517.72;;;3.28;61.16
77047;BME280;65977;56.380;44.022;2023-03-12T02:17:05;99517.72;;;3.28;61.95
77047;BME280;65977;56.380;44.022;2023-03-12T02:19:48;99513.97;;;3.32;61.25
77047;BME280;65977;56.380;44.022;2023-03-12T02:22:18;99506.00;;;3.34;61.47
77047;BME280;65977;56.380;44.022;2023-03-12T02:27:35;99512.91;;;3.35;62.90
77047;BME280;65977;56.380;44.022;2023-03-12T02:30:04;99491.31;;;3.33;63.43
77047;BME280;65977;56.380;44.022;2023-03-12T02:32:37;99489.41;;;3.35;64.19
77047;BME280;65977;56.380;44.022;2023-03-12T02:35:05;99487.97;;;3.31;63.66
77047;BME280;65977;56.380;44.022;2023-03-12T02:37:32;99472.78;;;3.36;62.96
77047;BME280;65977;56.380;44.022;2023-03-12T02:40:06;99490.13;;;3.37;64.00
77047;BME280;65977;56.380;44.022;2023-03-12T02:42:36;99459.50;;;3.39;63.47
77047;BME280;65977;56.380;44.022;2023-03-12T02:45:03;99449.53;;;3.33;64.92
77047;BME280;65977;56.380;44.022;2023-03-12T02:47:31;99461.75;;;3.32;64.86
77047;BME280;65977;56.380;44.022;2023-03-12T02:49:58;99475.41;;;3.36;64.50
77047;BME280;65977;56.380;44.022;2023-03-12T02:52:25;99445.59;;;3.27;65.82
77047;BME280;65977;56.380;44.022;2023-03-12T02:54:52;99436.00;;;3.28;65.90
77047;BME280;65977;56.380;44.022;2023-03-12T02:57:19;99437.41;;;3.32;66.42
77047;BME280;65977;56.380;44.022;2023-03-12T02:59:46;99455.41;;;3.24;66.71
77047;BME280;65977;56.380;44.022;2023-03-12T03:02:13;99441.59;;;3.34;65.93
77047;BME280;65977;56.380;44.022;2023-03-12T03:04:40;99433.13;;;3.31;66.39
77047;BME280;65977;56.380;44.022;2023-03-12T03:07:07;99439.91;;;3.33;66.37
77047;BME280;65977;56.380;44.022;2023-03-12T03:09:34;99413.59;;;3.36;66.00
77047;BME280;65977;56.380;44.022;2023-03-12T03:12:01;99424.28;;;3.44;65.89
77047;BME280;65977;56.380;44.022;2023-03-12T03:14:28;99393.56;;;3.48;65.15
77047;BME280;65977;56.380;44.022;2023-03-12T03:16:55;99427.16;;;3.52;65.27
77047;BME280;65977;56.380;44.022;2023-03-12T03:19:22;99396.75;;;3.51;65.54
77047;BME280;65977;56.380;44.022;2023-03-12T03:21:49;99390.38;;;3.55;65.34
77047;BME280;65977;56.380;44.022;2023-03-12T03:24:16;99402.25;;;3.59;65.31
77047;BME280;65977;56.380;44.022;2023-03-12T03:26:43;99395.25;;;3.60;65.56
77047;BME280;65977;56.380;44.022;2023-03-12T03:29:10;99359.88;;;3.67;64.85
77047;BME280;65977;56.380;44.022;2023-03-12T03:31:37;99386.72;;;3.69;64.92
77047;BME280;65977;56.380;44.022;2023-03-12T03:34:05;99394.09;;;3.75;64.69
77047;BME280;65977;56.380;44.022;2023-03-12T03:36:32;99356.91;;;3.71;64.97
77047;BME280;65977;56.380;44.022;2023-03-12T03:38:59;99385.91;;;3.79;64.70
77047;BME280;65977;56.380;44.022;2023-03-12T03:41:26;99346.59;;;3.81;65.74
77047;BME280;65977;56.380;44.022;2023-03-12T03:43:57;99364.41;;;3.87;65.11
77047;BME280;65977;56.380;44.022;2023-03-12T03:46:25;99356.19;;;3.92;64.88
77047;BME280;65977;56.380;44.022;2023-03-12T03:48:52;99365.94;;;3.90;65.56
77047;BME280;65977;56.380;44.022;2023-03-12T03:51:19;99358.34;;;3.98;65.04
77047;BME280;65977;56.380;44.022;2023-03-12T03:53:46;99342.19;;;3.93;65.97
77047;BME280;65977;56.380;44.022;2023-03-12T03:56:14;99343.84;;;4.05;65.40
77047;BME280;65977;56.380;44.022;2023-03-12T03:58:42;99350.03;;;4.04;65.45
77047;BME280;65977;56.380;44.022;2023-03-12T04:01:13;99329.25;;;4.13;64.54
77047;BME280;65977;56.380;44.022;2023-03-12T04:03:41;99311.88;;;4.12;65.33
77047;BME280;65977;56.380;44.022;2023-03-12T04:06:08;99314.75;;;4.09;65.99
77047;BME280;65977;56.380;44.022;2023-03-12T04:08:36;99335.78;;;4.19;65.67
77047;BME280;65977;56.380;44.022;2023-03-12T04:11:08;99307.13;;;4.17;66.60
77047;BME280;65977;56.380;44.022;2023-03-12T04:13:36;99312.81;;;4.22;66.17
77047;BME280;65977;56.380;44.022;2023-03-12T04:16:03;99286.06;;;4.30;65.92
77047;BME280;65977;56.380;44.022;2023-03-12T04:18:31;99287.56;;;4.43;64.87
77047;BME280;65977;56.380;44.022;2023-03-12T04:20:58;99274.34;;;4.45;65.75
77047;BME280;65977;56.380;44.022;2023-03-12T04:23:25;99277.09;;;4.55;65.32
77047;BME280;65977;56.380;44.022;2023-03-12T04:25:52;99271.56;;;4.58;65.00
77047;BME280;65977;56.380;44.022;2023-03-12T04:28:19;99254.84;;;4.60;65.75
77047;BME280;65977;56.380;44.022;2023-03-12T04:30:54;99262.41;;;4.63;65.10
77047;BME280;65977;56.380;44.022;2023-03-12T04:33:21;99265.16;;;4.62;65.43
77047;BME280;65977;56.380;44.022;2023-03-12T04:35:52;99261.47;;;4.64;65.88
77047;BME280;65977;56.380;44.022;2023-03-12T04:38:20;99262.75;;;4.70;65.87
77047;BME280;65977;56.380;44.022;2023-03-12T04:40:56;99238.69;;;4.76;65.55
77047;BME280;65977;56.380;44.022;2023-03-12T04:43:23;99246.03;;;4.82;65.51
77047;BME280;65977;56.380;44.022;2023-03-12T04:45:51;99239.72;;;4.84;65.23
77047;BME280;65977;56.380;44.022;2023-03-12T04:48:18;99250.50;;;4.91;64.69
77047;BME280;65977;56.380;44.022;2023-03-12T04:50:45;99220.50;;;4.95;64.55
77047;BME280;65977;56.380;44.022;2023-03-12T04:53:12;99208.28;;;5.05;64.23
77047;BME280;65977;56.380;44.022;2023-03-12T04:55:39;99251.97;;;5.04;64.34
77047;BME280;65977;56.380;44.022;2023-03-12T04:58:06;99212.19;;;5.10;64.46
77047;BME280;65977;56.380;44.022;2023-03-12T05:00:34;99231.22;;;5.13;64.23
77047;BME280;65977;56.380;44.022;2023-03-12T05:03:01;99209.09;;;5.26;63.80
77047;BME280;65977;56.380;44.022;2023-03-12T05:05:28;99193.75;;;5.22;63.86
77047;BME280;65977;56.380;44.022;2023-03-12T05:07:55;99197.97;;;5.34;63.73
77047;BME280;65977;56.380;44.022;2023-03-12T05:10:22;99227.03;;;5.31;64.01
77047;BME280;65977;56.380;44.022;2023-03-12T05:12:49;99194.63;;;5.32;64.19
77047;BME280;65977;56.380;44.022;2023-03-12T05:15:16;99148.22;;;5.34;64.11
77047;BME280;65977;56.380;44.022;2023-03-12T05:17:44;99152.91;;;5.40;63.95
77047;BME280;65977;56.380;44.022;2023-03-12T05:20:11;99141.63;;;5.49;64.15
77047;BME280;65977;56.380;44.022;2023-03-12T05:22:39;99147.97;;;5.46;63.85
77047;BME280;65977;56.380;44.022;2023-03-12T05:25:06;99121.41;;;5.70;63.55
77047;BME280;65977;56.380;44.022;2023-03-12T05:27:34;99159.94;;;5.89;63.08
77047;BME280;65977;56.380;44.022;2023-03-12T05:30:03;99122.53;;;5.77;63.15
77047;BME280;65977;56.380;44.022;2023-03-12T05:32:31;99091.53;;;5.92;62.88
77047;BME280;65977;56.380;44.022;2023-03-12T05:34:58;99093.56;;;5.98;62.63
77047;BME280;65977;56.380;44.022;2023-03-12T05:37:25;99102.41;;;6.06;62.47
77047;BME280;65977;56.380;44.022;2023-03-12T05:39:55;99134.16;;;6.03;62.61
77047;BME280;65977;56.380;44.022;2023-03-12T05:42:23;99151.56;;;6.04;62.65
77047;BME280;65977;56.380;44.022;2023-03-12T05:44:51;99113.59;;;6.18;62.00
77047;BME280;65977;56.380;44.022;2023-03-12T05:47:18;99134.97;;;6.23;62.19
77047;BME280;65977;56.380;44.022;2023-03-12T05:49:45;99180.53;;;6.31;61.61
77047;BME280;65977;56.380;44.022;2023-03-12T05:52:13;99118.97;;;6.35;61.19
77047;BME280;65977;56.380;44.022;2023-03-12T05:54:40;99134.72;;;6.35;61.41
77047;BME280;65977;56.380;44.022;2023-03-12T05:57:07;99141.34;;;6.11;61.67
77047;BME280;65977;56.380;44.022;2023-03-12T05:59:34;99138.59;;;6.12;62.09
77047;BME280;65977;56.380;44.022;2023-03-12T06:02:01;99112.06;;;6.15;61.86
77047;BME280;65977;56.380;44.022;2023-03-12T06:04:28;99140.53;;;6.20;62.06
77047;BME280;65977;56.380;44.022;2023-03-12T06:06:58;99129.19;;;6.19;62.17
77047;BME280;65977;56.380;44.022;2023-03-12T06:09:25;99111.69;;;6.20;62.20
77047;BME280;65977;56.380;44.022;2023-03-12T06:11:54;99124.09;;;6.27;62.04
77047;BME280;65977;56.380;44.022;2023-03-12T06:14:21;99126.28;;;6.32;62.01
77047;BME280;65977;56.380;44.022;2023-03-12T06:16:50;99128.91;;;6.32;62.05
77047;BME280;65977;56.380;44.022;2023-03-12T06:19:17;99107.09;;;6.31;62.49
77047;BME280;65977;56.380;44.022;2023-03-12T06:21:45;99087.38;;;6.27;62.73
77047;BME280;65977;56.380;44.022;2023-03-12T06:24:14;99075.63;;;6.22;62.72
77047;BME280;65977;56.380;44.022;2023-03-12T06:26:41;99065.41;;;6.28;63.38
77047;BME280;65977;56.380;44.022;2023-03-12T06:29:08;99073.16;;;6.30;63.25
77047;BME280;65977;56.380;44.022;2023-03-12T06:31:35;99087.19;;;6.38;63.38
77047;BME280;65977;56.380;44.022;2023-03-12T06:34:04;99080.19;;;6.29;63.70
77047;BME280;65977;56.380;44.022;2023-03-12T06:36:32;99072.16;;;6.41;64.03
77047;BME280;65977;56.380;44.022;2023-03-12T06:38:59;99058.06;;;6.42;63.70
77047;BME280;65977;56.380;44.022;2023-03-12T06:41:26;99067.72;;;6.41;64.53
77047;BME280;65977;56.380;44.022;2023-03-12T06:43:53;99066.38;;;6.27;64.68
77047;BME280;65977;56.380;44.022;2023-03-12T06:46:22;99064.84;;;6.34;64.87
77047;BME280;65977;56.380;44.022;2023-03-12T06:48:51;99082.13;;;6.27;64.80
77047;BME280;65977;56.380;44.022;2023-03-12T06:51:18;99056.16;;;6.24;64.90
77047;BME280;65977;56.380;44.022;2023-03-12T06:53:45;99074.97;;;6.20;65.52
77047;BME280;65977;56.380;44.022;2023-03-12T06:56:13;99062.38;;;6.33;65.01
77047;BME280;65977;56.380;44.022;2023-03-12T06:58:40;99044.41;;;6.28;65.78
77047;BME280;65977;56.380;44.022;2023-03-12T07:01:08;99052.84;;;6.32;65.23
77047;BME280;65977;56.380;44.022;2023-03-12T07:03:35;99035.44;;;6.31;65.86
77047;BME280;65977;56.380;44.022;2023-03-12T07:06:35;98987.59;;;6.00;65.70
77047;BME280;65977;56.380;44.022;2023-03-12T07:09:03;99057.56;;;6.19;66.12
77047;BME280;65977;56.380;44.022;2023-03-12T07:11:30;99053.53;;;6.24;65.96
77047;BME280;65977;56.380;44.022;2023-03-12T07:13:57;99036.88;;;6.06;66.85
77047;BME280;65977;56.380;44.022;2023-03-12T07:16:24;99034.91;;;6.18;66.71
77047;BME280;65977;56.380;44.022;2023-03-12T07:18:52;99014.09;;;6.07;66.78
77047;BME280;65977;56.380;44.022;2023-03-12T07:21:19;99024.59;;;6.07;67.06
77047;BME280;65977;56.380;44.022;2023-03-12T07:23:51;99016.28;;;6.11;66.90
77047;BME280;65977;56.380;44.022;2023-03-12T07:26:19;99017.38;;;6.18;66.76
77047;BME280;65977;56.380;44.022;2023-03-12T07:28:49;99022.91;;;6.15;67.33
77047;BME280;65977;56.380;44.022;2023-03-12T07:31:20;99017.78;;;6.23;67.05
77047;BME280;65977;56.380;44.022;2023-03-12T07:33:47;99016.66;;;6.35;66.65
77047;BME280;65977;56.380;44.022;2023-03-12T07:36:14;99008.38;;;6.40;66.23
77047;BME280;65977;56.380;44.022;2023-03-12T07:38:41;99012.94;;;6.38;66.64
77047;BME280;65977;56.380;44.022;2023-03-12T07:41:08;98999.50;;;6.41;66.48
77047;BME280;65977;56.380;44.022;2023-03-12T07:43:35;98993.25;;;6.52;66.71
77047;BME280;65977;56.380;44.022;2023-03-12T07:46:02;99015.03;;;6.62;66.39
77047;BME280;65977;56.380;44.022;2023-03-12T07:48:29;98984.22;;;6.73;66.02
77047;BME280;65977;56.380;44.022;2023-03-12T07:50:56;99013.38;;;6.70;66.28
77047;BME280;65977;56.380;44.022;2023-03-12T07:53:23;99012.78;;;6.76;66.26
77047;BME280;65977;56.380;44.022;2023-03-12T07:55:51;98975.59;;;6.81;66.10
77047;BME280;65977;56.380;44.022;2023-03-12T07:58:18;98991.16;;;6.92;65.75
77047;BME280;65977;56.380;44.022;2023-03-12T08:00:45;98994.25;;;7.05;65.26
77047;BME280;65977;56.380;44.022;2023-03-12T08:03:13;98978.00;;;7.19;64.93
77047;BME280;65977;56.380;44.022;2023-03-12T08:05:41;98982.56;;;7.35;64.94
77047;BME280;65977;56.380;44.022;2023-03-12T08:08:08;98976.81;;;7.67;63.77
77047;BME280;65977;56.380;44.022;2023-03-12T08:10:36;99001.50;;;7.91;63.09
77047;BME280;65977;56.380;44.022;2023-03-12T08:13:03;98980.16;;;8.20;62.30
77047;BME280;65977;56.380;44.022;2023-03-12T08:15:30;98990.00;;;8.36;60.99
77047;BME280;65977;56.380;44.022;2023-03-12T08:17:57;99000.53;;;8.36;60.71
77047;BME280;65977;56.380;44.022;2023-03-12T08:20:28;98986.53;;;8.35;60.47
77047;BME280;65977;56.380;44.022;2023-03-12T08:22:55;98983.84;;;8.27;60.79
77047;BME280;65977;56.380;44.022;2023-03-12T08:25:23;98974.69;;;8.31;60.90
77047;BME280;65977;56.380;44.022;2023-03-12T08:27:50;98983.59;;;8.38;60.76
77047;BME280;65977;56.380;44.022;2023-03-12T08:30:18;98974.09;;;8.45;60.25
77047;BME280;65977;56.380;44.022;2023-03-12T08:32:45;98970.03;;;8.51;60.01
77047;BME280;65977;56.380;44.022;2023-03-12T08:35:12;98963.44;;;8.55;59.94
77047;BME280;65977;56.380;44.022;2023-03-12T08:37:39;98971.06;;;8.66;59.72
77047;BME280;65977;56.380;44.022;2023-03-12T08:40:07;98954.66;;;8.80;59.09
77047;BME280;65977;56.380;44.022;2023-03-12T08:42:43;98934.63;;;8.87;58.71
77047;BME280;65977;56.380;44.022;2023-03-12T08:45:11;98939.63;;;9.14;58.22
77047;BME280;65977;56.380;44.022;2023-03-12T08:47:38;98976.41;;;9.40;57.70
77047;BME280;65977;56.380;44.022;2023-03-12T08:50:09;98925.03;;;10.55;55.15
77047;BME280;65977;56.380;44.022;2023-03-12T08:52:37;98993.06;;;11.62;52.51
77047;BME280;65977;56.380;44.022;2023-03-12T08:55:05;98928.75;;;12.13;49.58
77047;BME280;65977;56.380;44.022;2023-03-12T08:57:32;98943.88;;;12.42;48.82
77047;BME280;65977;56.380;44.022;2023-03-12T08:59:59;98954.31;;;12.58;47.87
77047;BME280;65977;56.380;44.022;2023-03-12T09:02:26;98927.25;;;12.48;47.59
77047;BME280;65977;56.380;44.022;2023-03-12T09:04:54;98930.34;;;12.22;48.32
77047;BME280;65977;56.380;44.022;2023-03-12T09:07:21;98959.16;;;12.02;48.43
77047;BME280;65977;56.380;44.022;2023-03-12T09:09:48;98940.50;;;11.81;49.11
77047;BME280;65977;56.380;44.022;2023-03-12T09:12:15;98923.69;;;11.74;49.39
77047;BME280;65977;56.380;44.022;2023-03-12T09:14:42;98908.16;;;11.49;49.65
77047;BME280;65977;56.380;44.022;2023-03-12T09:17:29;98947.81;;;11.26;50.32
77047;BME280;65977;56.380;44.022;2023-03-12T09:19:56;98934.03;;;11.08;50.67
77047;BME280;65977;56.380;44.022;2023-03-12T09:22:23;98915.56;;;11.30;50.38
77047;BME280;65977;56.380;44.022;2023-03-12T09:24:50;98903.19;;;11.91;49.36
77047;BME280;65977;56.380;44.022;2023-03-12T09:27:17;98904.22;;;12.04;48.44
77047;BME280;65977;56.380;44.022;2023-03-12T09:29:44;98902.47;;;11.97;48.16
77047;BME280;65977;56.380;44.022;2023-03-12T09:32:26;98915.84;;;11.58;48.72
77047;BME280;65977;56.380;44.022;2023-03-12T09:34:53;98911.16;;;11.23;49.44
77047;BME280;65977;56.380;44.022;2023-03-12T09:37:20;98893.84;;;10.90;50.17
77047;BME280;65977;56.380;44.022;2023-03-12T09:39:50;98883.06;;;10.60;50.91
77047;BME280;65977;56.380;44.022;2023-03-12T09:42:24;98901.34;;;10.31;51.84
77047;BME280;65977;56.380;44.022;2023-03-12T09:44:54;98911.94;;;10.15;52.07
77047;BME280;65977;56.380;44.022;2023-03-12T09:47:29;98881.09;;;10.15;52.20
77047;BME280;65977;56.380;44.022;2023-03-12T09:50:20;98874.19;;;10.06;52.42
77047;BME280;65977;56.380;44.022;2023-03-12T09:55:39;98842.53;;;9.98;53.04
77047;BME280;65977;56.380;44.022;2023-03-12T09:58:21;98830.09;;;10.23;52.51
77047;BME280;65977;56.380;44.022;2023-03-12T10:00:56;98856.19;;;10.57;51.95
77047;BME280;65977;56.380;44.022;2023-03-12T10:06:38;98823.47;;;11.11;49.87
77047;BME280;65977;56.380;44.022;2023-03-12T10:09:35;98768.97;;;11.10;49.00
77047;BME280;65977;56.380;44.022;2023-03-12T10:13:14;98812.00;;;11.19;49.19
77047;BME280;65977;56.380;44.022;2023-03-12T10:15:38;98801.81;;;11.16;49.37
77047;BME280;65977;56.380;44.022;2023-03-12T10:23:38;98801.94;;;11.00;49.60
77047;BME280;65977;56.380;44.022;2023-03-12T10:26:15;98794.00;;;11.00;49.38
77047;BME280;65977;56.380;44.022;2023-03-12T10:28:47;98770.66;;;11.26;49.25
77047;BME280;65977;56.380;44.022;2023-03-12T10:31:26;98762.19;;;11.45;48.87
77047;BME280;65977;56.380;44.022;2023-03-12T10:33:59;98752.09;;;11.49;48.86
77047;BME280;65977;56.380;44.022;2023-03-12T10:36:35;98777.31;;;11.74;48.02
77047;BME280;65977;56.380;44.022;2023-03-12T10:39:18;98746.31;;;12.18;47.72
77047;BME280;65977;56.380;44.022;2023-03-12T10:41:48;98739.81;;;12.35;46.71
77047;BME280;65977;56.380;44.022;2023-03-12T10:44:22;98753.72;;;12.58;46.34
77047;BME280;65977;56.380;44.022;2023-03-12T10:47:27;98744.13;;;12.22;45.79
77047;BME280;65977;56.380;44.022;2023-03-12T10:50:15;98701.19;;;11.90;46.47
77047;BME280;65977;56.380;44.022;2023-03-12T10:52:44;98706.88;;;11.73;47.25
77047;BME280;65977;56.380;44.022;2023-03-12T10:57:52;98702.94;;;10.88;49.09
77047;BME280;65977;56.380;44.022;2023-03-12T11:00:23;98703.88;;;10.72;49.75
77047;BME280;65977;56.380;44.022;2023-03-12T11:03:19;98721.69;;;10.25;50.77
77047;BME280;65977;56.380;44.022;2023-03-12T11:05:49;98718.41;;;9.84;51.99
77047;BME280;65977;56.380;44.022;2023-03-12T11:10:54;98700.56;;;9.55;53.00
77047;BME280;65977;56.380;44.022;2023-03-12T11:13:36;98719.22;;;9.45;53.48
77047;BME280;65977;56.380;44.022;2023-03-12T11:19:04;98710.19;;;9.79;52.65
77047;BME280;65977;56.380;44.022;2023-03-12T11:21:37;98690.03;;;9.86;52.14
77047;BME280;65977;56.380;44.022;2023-03-12T11:24:09;98708.81;;;9.91;52.18
77047;BME280;65977;56.380;44.022;2023-03-12T11:26:46;98704.50;;;9.98;52.31
77047;BME280;65977;56.380;44.022;2023-03-12T11:34:30;98686.31;;;9.72;52.79
77047;BME280;65977;56.380;44.022;2023-03-12T11:37:30;98667.22;;;9.62;53.25
77047;BME280;65977;56.380;44.022;2023-03-12T11:40:16;98651.66;;;9.44;53.91
77047;BME280;65977;56.380;44.022;2023-03-12T11:49:38;98650.47;;;9.47;54.13
77047;BME280;65977;56.380;44.022;2023-03-12T11:57:54;98674.50;;;8.97;55.15
77047;BME280;65977;56.380;44.022;2023-03-12T12:00:53;98673.19;;;8.93;55.41
77047;BME280;65977;56.380;44.022;2023-03-12T12:03:50;98638.66;;;8.72;56.28
77047;BME280;65977;56.380;44.022;2023-03-12T12:09:34;98640.97;;;8.59;57.17
77047;BME280;65977;56.380;44.022;2023-03-12T12:12:21;98638.66;;;8.56;57.20
77047;BME280;65977;56.380;44.022;2023-03-12T12:15:07;98616.13;;;8.61;57.39
77047;BME280;65977;56.380;44.022;2023-03-12T12:20:38;98609.84;;;8.70;57.16
77047;BME280;65977;56.380;44.022;2023-03-12T12:23:23;98619.53;;;8.86;56.84
77047;BME280;65977;56.380;44.022;2023-03-12T12:31:54;98585.81;;;8.65;57.42
77047;BME280;65977;56.380;44.022;2023-03-12T12:42:57;98579.78;;;8.41;58.61
77047;BME280;65977;56.380;44.022;2023-03-12T12:45:27;98580.28;;;8.36;58.93
77047;BME280;65977;56.380;44.022;2023-03-12T12:48:05;98541.78;;;8.35;59.13
77047;BME280;65977;56.380;44.022;2023-03-12T12:50:36;98553.47;;;8.41;58.97
77047;BME280;65977;56.380;44.022;2023-03-12T12:53:22;98532.22;;;8.50;58.48
77047;BME280;65977;56.380;44.022;2023-03-12T12:56:03;98553.13;;;8.44;58.60
77047;BME280;65977;56.380;44.022;2023-03-12T13:01:30;98510.22;;;8.35;59.01
77047;BME280;65977;56.380;44.022;2023-03-12T13:04:11;98497.88;;;8.36;59.39
77047;BME280;65977;56.380;44.022;2023-03-12T13:06:55;98516.44;;;8.42;59.17
77047;BME280;65977;56.380;44.022;2023-03-12T13:09:44;98485.19;;;8.39;59.38
77047;BME280;65977;56.380;44.022;2023-03-12T13:12:35;98489.47;;;8.48;59.07
77047;BME280;65977;56.380;44.022;2023-03-12T13:18:25;98495.56;;;8.41;59.73
77047;BME280;65977;56.380;44.022;2023-03-12T13:27:04;98483.41;;;7.99;61.20
77047;BME280;65977;56.380;44.022;2023-03-12T13:29:40;98472.41;;;7.88;62.07
77047;BME280;65977;56.380;44.022;2023-03-12T13:46:38;98445.31;;;7.47;63.36
77047;BME280;65977;56.380;44.022;2023-03-12T13:49:22;98444.97;;;7.42;64.17
77047;BME280;65977;56.380;44.022;2023-03-12T13:52:41;98440.88;;;7.47;63.82
77047;BME280;65977;56.380;44.022;2023-03-12T13:57:42;98453.34;;;7.45;63.83
77047;BME280;65977;56.380;44.022;2023-03-12T14:00:20;98415.06;;;7.27;64.30
77047;BME280;65977;56.380;44.022;2023-03-12T14:02:54;98444.63;;;7.37;64.26
77047;BME280;65977;56.380;44.022;2023-03-12T14:05:25;98434.47;;;7.42;64.07
77047;BME280;65977;56.380;44.022;2023-03-12T14:11:08;98440.69;;;7.33;65.23
77047;BME280;65977;56.380;44.022;2023-03-12T14:16:51;98440.34;;;7.28;65.88
77047;BME280;65977;56.380;44.022;2023-03-12T14:19:25;98425.22;;;7.30;66.32
77047;BME280;65977;56.380;44.022;2023-03-12T14:21:55;98419.97;;;7.30;66.55
77047;BME280;65977;56.380;44.022;2023-03-12T14:26:53;98399.47;;;7.25;67.02
77047;BME280;65977;56.380;44.022;2023-03-12T14:29:28;98418.03;;;7.32;66.99
77047;BME280;65977;56.380;44.022;2023-03-12T14:32:02;98427.88;;;7.30;67.45
77047;BME280;65977;56.380;44.022;2023-03-12T14:34:53;98403.06;;;7.32;67.14
77047;BME280;65977;56.380;44.022;2023-03-12T14:37:57;98401.78;;;7.36;67.20
77047;BME280;65977;56.380;44.022;2023-03-12T14:43:01;98375.50;;;7.44;66.66
77047;BME280;65977;56.380;44.022;2023-03-12T14:45:28;98366.78;;;7.28;66.87
77047;BME280;65977;56.380;44.022;2023-03-12T14:47:58;98345.91;;;7.42;67.07
77047;BME280;65977;56.380;44.022;2023-03-12T14:50:29;98387.00;;;7.43;66.93
77047;BME280;65977;56.380;44.022;2023-03-12T14:55:43;98410.00;;;7.41;66.83
77047;BME280;65977;56.380;44.022;2023-03-12T14:58:18;98413.13;;;7.37;67.33
77047;BME280;65977;56.380;44.022;2023-03-12T15:00:55;98361.53;;;7.44;67.28
77047;BME280;65977;56.380;44.022;2023-03-12T15:03:23;98384.53;;;7.34;67.40
77047;BME280;65977;56.380;44.022;2023-03-12T15:05:52;98350.19;;;7.43;67.14